sensor_id;sensor_type;location;lat;lon;timestamp;P1;durP1;ratioP1;P2;durP2;ratioP2
43509;SDS011;29105;57.764;40.952;2022-10-19T00:00:03;2.10;;;0.35;;
43509;SDS011;29105;57.764;40.952;2022-10-19T00:02:29;1.85;;;0.40;;
43509;SDS011;29105;57.764;40.952;2022-10-19T00:04:55;1.67;;;0.88;;
43509;SDS011;29105;57.764;40.952;2022-10-19T00:07:20;0.50;;;0.15;;
43509;SDS011;29105;57.764;40.952;2022-10-19T00:09:46;2.30;;;0.70;;
43509;SDS011;29105;57.764;40.952;2022-10-19T00:12:12;1.33;;;0.52;;
43509;SDS011;29105;57.764;40.952;2022-10-19T00:14:37;1.00;;;0.85;;
43509;SDS011;29105;57.764;40.952;2022-10-19T00:17:03;2.33;;;0.50;;
43509;SDS011;29105;57.764;40.952;2022-10-19T00:19:30;1.63;;;0.40;;
43509;SDS011;29105;57.764;40.952;2022-10-19T00:21:56;2.83;;;0.80;;
43509;SDS011;29105;57.764;40.952;2022-10-19T00:24:21;1.13;;;0.52;;
43509;SDS011;29105;57.764;40.952;2022-10-19T00:26:47;0.95;;;0.57;;
43509;SDS011;29105;57.764;40.952;2022-10-19T00:29:15;1.08;;;0.30;;
43509;SDS011;29105;57.764;40.952;2022-10-19T00:31:43;1.00;;;0.55;;
43509;SDS011;29105;57.764;40.952;2022-10-19T00:34:09;1.20;;;0.35;;
43509;SDS011;29105;57.764;40.952;2022-10-19T00:36:36;0.75;;;0.30;;
43509;SDS011;29105;57.764;40.952;2022-10-19T00:39:04;2.25;;;0.40;;
43509;SDS011;29105;57.764;40.952;2022-10-19T00:41:31;2.78;;;1.02;;
43509;SDS011;29105;57.764;40.952;2022-10-19T00:46:32;1.52;;;0.65;;
43509;SDS011;29105;57.764;40.952;2022-10-19T00:49:01;1.02;;;0.50;;
43509;SDS011;29105;57.764;40.952;2022-10-19T00:51:30;2.00;;;1.20;;
43509;SDS011;29105;57.764;40.952;2022-10-19T00:53:56;1.48;;;1.10;;
43509;SDS011;29105;57.764;40.952;2022-10-19T00:56:22;0.90;;;0.30;;
43509;SDS011;29105;57.764;40.952;2022-10-19T00:58:48;2.17;;;1.40;;
43509;SDS011;29105;57.764;40.952;2022-10-19T01:01:15;1.58;;;0.90;;
43509;SDS011;29105;57.764;40.952;2022-10-19T01:03:43;3.17;;;0.50;;
43509;SDS011;29105;57.764;40.952;2022-10-19T01:06:10;2.30;;;0.73;;
43509;SDS011;29105;57.764;40.952;2022-10-19T01:08:37;0.93;;;0.63;;
43509;SDS011;29105;57.764;40.952;2022-10-19T01:21:52;1.05;;;0.63;;
43509;SDS011;29105;57.764;40.952;2022-10-19T01:32:20;1.60;;;0.63;;
43509;SDS011;29105;57.764;40.952;2022-10-19T01:37:22;1.35;;;0.90;;
43509;SDS011;29105;57.764;40.952;2022-10-19T01:40:04;3.85;;;0.73;;
43509;SDS011;29105;57.764;40.952;2022-10-19T01:42:41;6.03;;;1.05;;
43509;SDS011;29105;57.764;40.952;2022-10-19T01:47:39;2.35;;;0.73;;
43509;SDS011;29105;57.764;40.952;2022-10-19T01:50:19;1.05;;;0.77;;
43509;SDS011;29105;57.764;40.952;2022-10-19T01:52:51;1.95;;;0.90;;
43509;SDS011;29105;57.764;40.952;2022-10-19T01:55:21;3.47;;;0.60;;
43509;SDS011;29105;57.764;40.952;2022-10-19T01:58:07;1.38;;;0.80;;
43509;SDS011;29105;57.764;40.952;2022-10-19T02:00:40;1.38;;;0.70;;
43509;SDS011;29105;57.764;40.952;2022-10-19T02:03:06;0.65;;;0.40;;
43509;SDS011;29105;57.764;40.952;2022-10-19T02:05:33;2.30;;;0.70;;
43509;SDS011;29105;57.764;40.952;2022-10-19T02:08:04;1.20;;;0.60;;
43509;SDS011;29105;57.764;40.952;2022-10-19T02:10:32;4.18;;;0.70;;
43509;SDS011;29105;57.764;40.952;2022-10-19T02:12:59;1.58;;;0.63;;
43509;SDS011;29105;57.764;40.952;2022-10-19T02:15:50;1.80;;;0.75;;
43509;SDS011;29105;57.764;40.952;2022-10-19T02:18:20;1.55;;;0.40;;
43509;SDS011;29105;57.764;40.952;2022-10-19T02:20:49;1.90;;;0.52;;
43509;SDS011;29105;57.764;40.952;2022-10-19T02:23:16;1.30;;;0.68;;
43509;SDS011;29105;57.764;40.952;2022-10-19T02:25:43;1.08;;;0.40;;
43509;SDS011;29105;57.764;40.952;2022-10-19T02:28:09;1.10;;;0.47;;
43509;SDS011;29105;57.764;40.952;2022-10-19T02:30:35;1.10;;;0.60;;
43509;SDS011;29105;57.764;40.952;2022-10-19T02:33:00;0.98;;;0.47;;
43509;SDS011;29105;57.764;40.952;2022-10-19T02:35:26;1.98;;;0.80;;
43509;SDS011;29105;57.764;40.952;2022-10-19T02:37:52;0.90;;;0.60;;
43509;SDS011;29105;57.764;40.952;2022-10-19T02:40:18;2.15;;;0.52;;
43509;SDS011;29105;57.764;40.952;2022-10-19T02:42:49;3.42;;;0.70;;
43509;SDS011;29105;57.764;40.952;2022-10-19T02:45:23;1.15;;;0.65;;
43509;SDS011;29105;57.764;40.952;2022-10-19T02:48:02;1.80;;;0.80;;
43509;SDS011;29105;57.764;40.952;2022-10-19T02:50:32;1.25;;;0.60;;
43509;SDS011;29105;57.764;40.952;2022-10-19T02:52:58;3.65;;;0.70;;
43509;SDS011;29105;57.764;40.952;2022-10-19T02:55:24;1.65;;;0.63;;
43509;SDS011;29105;57.764;40.952;2022-10-19T02:57:50;0.80;;;0.55;;
43509;SDS011;29105;57.764;40.952;2022-10-19T03:00:16;1.00;;;0.60;;
43509;SDS011;29105;57.764;40.952;2022-10-19T03:02:42;2.50;;;0.85;;
43509;SDS011;29105;57.764;40.952;2022-10-19T03:05:09;1.05;;;0.70;;
43509;SDS011;29105;57.764;40.952;2022-10-19T03:07:36;1.42;;;0.50;;
43509;SDS011;29105;57.764;40.952;2022-10-19T03:10:01;1.70;;;0.60;;
43509;SDS011;29105;57.764;40.952;2022-10-19T03:12:28;1.80;;;1.00;;
43509;SDS011;29105;57.764;40.952;2022-10-19T03:14:55;1.35;;;0.88;;
43509;SDS011;29105;57.764;40.952;2022-10-19T03:17:21;1.50;;;0.80;;
43509;SDS011;29105;57.764;40.952;2022-10-19T03:19:46;2.25;;;1.10;;
43509;SDS011;29105;57.764;40.952;2022-10-19T03:22:12;2.08;;;1.10;;
43509;SDS011;29105;57.764;40.952;2022-10-19T03:24:40;1.67;;;1.30;;
43509;SDS011;29105;57.764;40.952;2022-10-19T03:27:06;2.97;;;0.80;;
43509;SDS011;29105;57.764;40.952;2022-10-19T03:29:32;3.35;;;1.50;;
43509;SDS011;29105;57.764;40.952;2022-10-19T03:31:57;2.72;;;0.80;;
43509;SDS011;29105;57.764;40.952;2022-10-19T03:34:23;2.63;;;1.38;;
43509;SDS011;29105;57.764;40.952;2022-10-19T03:36:48;3.05;;;0.98;;
43509;SDS011;29105;57.764;40.952;2022-10-19T03:39:14;1.55;;;0.88;;
43509;SDS011;29105;57.764;40.952;2022-10-19T03:41:41;2.08;;;1.20;;
43509;SDS011;29105;57.764;40.952;2022-10-19T03:44:08;1.55;;;0.98;;
43509;SDS011;29105;57.764;40.952;2022-10-19T03:46:35;1.20;;;0.88;;
43509;SDS011;29105;57.764;40.952;2022-10-19T03:49:02;2.25;;;0.90;;
43509;SDS011;29105;57.764;40.952;2022-10-19T03:51:29;1.50;;;0.90;;
43509;SDS011;29105;57.764;40.952;2022-10-19T03:54:14;2.42;;;1.05;;
43509;SDS011;29105;57.764;40.952;2022-10-19T03:56:40;1.40;;;0.82;;
43509;SDS011;29105;57.764;40.952;2022-10-19T03:59:06;1.35;;;0.45;;
43509;SDS011;29105;57.764;40.952;2022-10-19T04:01:34;2.28;;;1.00;;
43509;SDS011;29105;57.764;40.952;2022-10-19T04:04:02;1.80;;;0.60;;
43509;SDS011;29105;57.764;40.952;2022-10-19T04:06:34;1.23;;;0.68;;
43509;SDS011;29105;57.764;40.952;2022-10-19T04:09:02;0.90;;;0.70;;
43509;SDS011;29105;57.764;40.952;2022-10-19T04:11:29;1.77;;;0.73;;
43509;SDS011;29105;57.764;40.952;2022-10-19T04:13:55;1.63;;;0.55;;
43509;SDS011;29105;57.764;40.952;2022-10-19T04:16:22;1.48;;;0.82;;
43509;SDS011;29105;57.764;40.952;2022-10-19T04:18:49;2.00;;;0.77;;
43509;SDS011;29105;57.764;40.952;2022-10-19T04:21:19;1.98;;;0.50;;
43509;SDS011;29105;57.764;40.952;2022-10-19T04:26:13;0.77;;;0.68;;
43509;SDS011;29105;57.764;40.952;2022-10-19T04:28:38;1.95;;;1.13;;
43509;SDS011;29105;57.764;40.952;2022-10-19T04:31:04;2.47;;;1.20;;
43509;SDS011;29105;57.764;40.952;2022-10-19T04:33:30;1.67;;;1.20;;
43509;SDS011;29105;57.764;40.952;2022-10-19T04:35:59;2.83;;;1.30;;
43509;SDS011;29105;57.764;40.952;2022-10-19T04:38:27;2.08;;;1.40;;
43509;SDS011;29105;57.764;40.952;2022-10-19T04:40:54;1.35;;;0.82;;
43509;SDS011;29105;57.764;40.952;2022-10-19T04:43:20;2.03;;;1.50;;
43509;SDS011;29105;57.764;40.952;2022-10-19T04:45:47;4.00;;;1.20;;
43509;SDS011;29105;57.764;40.952;2022-10-19T04:48:13;1.50;;;1.40;;
43509;SDS011;29105;57.764;40.952;2022-10-19T04:50:38;1.55;;;1.05;;
43509;SDS011;29105;57.764;40.952;2022-10-19T04:53:04;2.75;;;1.50;;
43509;SDS011;29105;57.764;40.952;2022-10-19T04:55:30;2.90;;;0.98;;
43509;SDS011;29105;57.764;40.952;2022-10-19T04:57:55;1.17;;;0.60;;
43509;SDS011;29105;57.764;40.952;2022-10-19T05:00:21;1.60;;;0.85;;
43509;SDS011;29105;57.764;40.952;2022-10-19T05:02:47;1.42;;;0.82;;
43509;SDS011;29105;57.764;40.952;2022-10-19T05:05:13;2.40;;;0.73;;
43509;SDS011;29105;57.764;40.952;2022-10-19T05:07:39;6.60;;;0.80;;
43509;SDS011;29105;57.764;40.952;2022-10-19T05:10:05;1.65;;;0.75;;
43509;SDS011;29105;57.764;40.952;2022-10-19T05:12:34;2.00;;;1.10;;
43509;SDS011;29105;57.764;40.952;2022-10-19T05:15:03;3.88;;;0.98;;
43509;SDS011;29105;57.764;40.952;2022-10-19T05:17:30;4.22;;;0.82;;
43509;SDS011;29105;57.764;40.952;2022-10-19T05:19:59;0.82;;;0.70;;
43509;SDS011;29105;57.764;40.952;2022-10-19T05:22:24;1.40;;;1.05;;
43509;SDS011;29105;57.764;40.952;2022-10-19T05:24:50;1.17;;;0.65;;
43509;SDS011;29105;57.764;40.952;2022-10-19T05:27:16;4.00;;;0.93;;
43509;SDS011;29105;57.764;40.952;2022-10-19T05:29:41;4.88;;;1.55;;
43509;SDS011;29105;57.764;40.952;2022-10-19T05:32:07;5.38;;;0.95;;
43509;SDS011;29105;57.764;40.952;2022-10-19T05:34:32;2.65;;;1.05;;
43509;SDS011;29105;57.764;40.952;2022-10-19T05:37:00;0.80;;;0.47;;
43509;SDS011;29105;57.764;40.952;2022-10-19T05:39:25;2.83;;;0.68;;
43509;SDS011;29105;57.764;40.952;2022-10-19T05:41:51;1.00;;;0.57;;
43509;SDS011;29105;57.764;40.952;2022-10-19T05:44:20;1.95;;;0.75;;
43509;SDS011;29105;57.764;40.952;2022-10-19T05:46:47;3.97;;;1.48;;
43509;SDS011;29105;57.764;40.952;2022-10-19T05:49:15;1.30;;;0.80;;
43509;SDS011;29105;57.764;40.952;2022-10-19T05:51:41;0.80;;;0.60;;
43509;SDS011;29105;57.764;40.952;2022-10-19T05:54:08;1.25;;;0.70;;
43509;SDS011;29105;57.764;40.952;2022-10-19T05:56:35;2.53;;;0.70;;
43509;SDS011;29105;57.764;40.952;2022-10-19T05:59:03;1.05;;;0.70;;
43509;SDS011;29105;57.764;40.952;2022-10-19T06:01:29;0.93;;;0.65;;
43509;SDS011;29105;57.764;40.952;2022-10-19T06:03:56;4.70;;;0.73;;
43509;SDS011;29105;57.764;40.952;2022-10-19T06:06:24;3.85;;;0.73;;
43509;SDS011;29105;57.764;40.952;2022-10-19T06:08:50;0.90;;;0.60;;
43509;SDS011;29105;57.764;40.952;2022-10-19T06:11:18;1.27;;;0.40;;
43509;SDS011;29105;57.764;40.952;2022-10-19T06:13:48;0.90;;;0.28;;
43509;SDS011;29105;57.764;40.952;2022-10-19T06:16:18;1.45;;;0.40;;
43509;SDS011;29105;57.764;40.952;2022-10-19T06:18:45;1.25;;;0.20;;
43509;SDS011;29105;57.764;40.952;2022-10-19T06:21:12;1.65;;;0.40;;
43509;SDS011;29105;57.764;40.952;2022-10-19T06:23:39;2.42;;;0.40;;
43509;SDS011;29105;57.764;40.952;2022-10-19T06:26:07;0.63;;;0.30;;
43509;SDS011;29105;57.764;40.952;2022-10-19T06:28:38;0.40;;;0.15;;
43509;SDS011;29105;57.764;40.952;2022-10-19T06:31:04;2.78;;;0.30;;
43509;SDS011;29105;57.764;40.952;2022-10-19T06:33:30;1.52;;;1.05;;
43509;SDS011;29105;57.764;40.952;2022-10-19T06:38:36;1.10;;;0.40;;
43509;SDS011;29105;57.764;40.952;2022-10-19T06:41:02;1.38;;;0.40;;
43509;SDS011;29105;57.764;40.952;2022-10-19T06:43:28;1.05;;;0.30;;
43509;SDS011;29105;57.764;40.952;2022-10-19T06:45:54;1.83;;;0.63;;
43509;SDS011;29105;57.764;40.952;2022-10-19T06:48:22;1.48;;;0.60;;
43509;SDS011;29105;57.764;40.952;2022-10-19T06:50:55;1.02;;;0.30;;
43509;SDS011;29105;57.764;40.952;2022-10-19T06:53:31;0.75;;;0.43;;
43509;SDS011;29105;57.764;40.952;2022-10-19T06:55:58;0.93;;;0.38;;
43509;SDS011;29105;57.764;40.952;2022-10-19T06:58:24;1.52;;;0.70;;
43509;SDS011;29105;57.764;40.952;2022-10-19T07:00:57;4.97;;;0.70;;
43509;SDS011;29105;57.764;40.952;2022-10-19T07:03:23;2.00;;;0.30;;
43509;SDS011;29105;57.764;40.952;2022-10-19T07:05:57;2.10;;;0.40;;
43509;SDS011;29105;57.764;40.952;2022-10-19T07:08:24;1.20;;;0.52;;
43509;SDS011;29105;57.764;40.952;2022-10-19T07:10:56;2.22;;;0.63;;
43509;SDS011;29105;57.764;40.952;2022-10-19T07:13:23;1.77;;;0.82;;
43509;SDS011;29105;57.764;40.952;2022-10-19T07:15:54;1.42;;;0.73;;
43509;SDS011;29105;57.764;40.952;2022-10-19T07:18:24;0.95;;;0.55;;
43509;SDS011;29105;57.764;40.952;2022-10-19T07:20:57;0.75;;;0.45;;
43509;SDS011;29105;57.764;40.952;2022-10-19T07:23:24;0.95;;;0.70;;
43509;SDS011;29105;57.764;40.952;2022-10-19T07:25:51;1.75;;;0.65;;
43509;SDS011;29105;57.764;40.952;2022-10-19T07:28:19;3.55;;;0.60;;
43509;SDS011;29105;57.764;40.952;2022-10-19T07:30:45;1.65;;;0.95;;
43509;SDS011;29105;57.764;40.952;2022-10-19T07:33:11;2.67;;;1.05;;
43509;SDS011;29105;57.764;40.952;2022-10-19T07:35:37;2.17;;;1.10;;
43509;SDS011;29105;57.764;40.952;2022-10-19T07:38:04;1.33;;;0.88;;
43509;SDS011;29105;57.764;40.952;2022-10-19T07:40:30;1.63;;;0.93;;
43509;SDS011;29105;57.764;40.952;2022-10-19T07:42:56;4.57;;;0.98;;
43509;SDS011;29105;57.764;40.952;2022-10-19T07:45:22;1.65;;;0.90;;
43509;SDS011;29105;57.764;40.952;2022-10-19T07:47:50;1.60;;;0.88;;
43509;SDS011;29105;57.764;40.952;2022-10-19T07:50:16;5.20;;;1.48;;
43509;SDS011;29105;57.764;40.952;2022-10-19T07:52:42;2.60;;;0.90;;
43509;SDS011;29105;57.764;40.952;2022-10-19T07:55:08;2.40;;;0.95;;
43509;SDS011;29105;57.764;40.952;2022-10-19T07:57:34;2.55;;;0.80;;
43509;SDS011;29105;57.764;40.952;2022-10-19T08:00:00;1.42;;;0.65;;
43509;SDS011;29105;57.764;40.952;2022-10-19T08:02:27;1.55;;;0.73;;
43509;SDS011;29105;57.764;40.952;2022-10-19T08:04:52;1.80;;;1.20;;
43509;SDS011;29105;57.764;40.952;2022-10-19T08:07:18;2.75;;;0.90;;
43509;SDS011;29105;57.764;40.952;2022-10-19T08:09:44;2.72;;;1.42;;
43509;SDS011;29105;57.764;40.952;2022-10-19T08:12:10;3.90;;;1.30;;
43509;SDS011;29105;57.764;40.952;2022-10-19T08:14:35;5.15;;;1.50;;
43509;SDS011;29105;57.764;40.952;2022-10-19T08:17:03;6.03;;;1.35;;
43509;SDS011;29105;57.764;40.952;2022-10-19T08:19:28;9.82;;;2.50;;
43509;SDS011;29105;57.764;40.952;2022-10-19T08:21:54;5.03;;;2.17;;
43509;SDS011;29105;57.764;40.952;2022-10-19T08:24:20;1.70;;;1.05;;
43509;SDS011;29105;57.764;40.952;2022-10-19T08:26:46;16.35;;;2.80;;
43509;SDS011;29105;57.764;40.952;2022-10-19T08:31:39;4.90;;;1.30;;
43509;SDS011;29105;57.764;40.952;2022-10-19T08:34:05;2.28;;;1.20;;
43509;SDS011;29105;57.764;40.952;2022-10-19T08:36:30;3.35;;;1.30;;
43509;SDS011;29105;57.764;40.952;2022-10-19T08:38:57;6.60;;;2.00;;
43509;SDS011;29105;57.764;40.952;2022-10-19T08:47:00;4.15;;;2.00;;
43509;SDS011;29105;57.764;40.952;2022-10-19T08:49:36;8.27;;;2.38;;
43509;SDS011;29105;57.764;40.952;2022-10-19T08:52:13;7.18;;;2.80;;
43509;SDS011;29105;57.764;40.952;2022-10-19T08:54:47;5.78;;;2.45;;
43509;SDS011;29105;57.764;40.952;2022-10-19T08:59:51;5.57;;;1.88;;
43509;SDS011;29105;57.764;40.952;2022-10-19T09:02:29;5.10;;;2.67;;
43509;SDS011;29105;57.764;40.952;2022-10-19T09:05:04;7.22;;;2.97;;
43509;SDS011;29105;57.764;40.952;2022-10-19T09:07:50;9.57;;;3.05;;
43509;SDS011;29105;57.764;40.952;2022-10-19T09:10:18;6.70;;;2.70;;
43509;SDS011;29105;57.764;40.952;2022-10-19T09:13:01;8.20;;;2.00;;
43509;SDS011;29105;57.764;40.952;2022-10-19T09:15:34;8.38;;;2.10;;
43509;SDS011;29105;57.764;40.952;2022-10-19T09:18:22;6.28;;;2.22;;
43509;SDS011;29105;57.764;40.952;2022-10-19T09:21:11;4.75;;;2.25;;
43509;SDS011;29105;57.764;40.952;2022-10-19T09:26:31;5.63;;;0.77;;
43509;SDS011;29105;57.764;40.952;2022-10-19T09:29:11;3.70;;;0.95;;
43509;SDS011;29105;57.764;40.952;2022-10-19T09:31:52;4.68;;;0.70;;
43509;SDS011;29105;57.764;40.952;2022-10-19T09:34:28;3.35;;;0.50;;
43509;SDS011;29105;57.764;40.952;2022-10-19T09:37:13;0.93;;;0.55;;
43509;SDS011;29105;57.764;40.952;2022-10-19T09:39:39;6.97;;;1.08;;
43509;SDS011;29105;57.764;40.952;2022-10-19T09:42:22;5.35;;;1.70;;
43509;SDS011;29105;57.764;40.952;2022-10-19T09:44:53;7.57;;;1.08;;
43509;SDS011;29105;57.764;40.952;2022-10-19T09:50:13;4.47;;;1.45;;
43509;SDS011;29105;57.764;40.952;2022-10-19T09:52:42;3.53;;;1.48;;
43509;SDS011;29105;57.764;40.952;2022-10-19T10:00:42;13.32;;;2.80;;
43509;SDS011;29105;57.764;40.952;2022-10-19T10:06:13;6.90;;;2.40;;
43509;SDS011;29105;57.764;40.952;2022-10-19T10:08:46;9.40;;;1.80;;
43509;SDS011;29105;57.764;40.952;2022-10-19T10:11:23;8.07;;;2.47;;
43509;SDS011;29105;57.764;40.952;2022-10-19T10:13:52;9.27;;;2.10;;
43509;SDS011;29105;57.764;40.952;2022-10-19T10:16:19;7.35;;;2.20;;
43509;SDS011;29105;57.764;40.952;2022-10-19T10:18:53;9.38;;;1.92;;
43509;SDS011;29105;57.764;40.952;2022-10-19T10:21:20;5.38;;;2.10;;
43509;SDS011;29105;57.764;40.952;2022-10-19T10:23:59;5.90;;;1.60;;
43509;SDS011;29105;57.764;40.952;2022-10-19T10:26:36;4.70;;;1.50;;
43509;SDS011;29105;57.764;40.952;2022-10-19T10:29:16;1.73;;;0.80;;
43509;SDS011;29105;57.764;40.952;2022-10-19T10:31:45;2.30;;;0.98;;
43509;SDS011;29105;57.764;40.952;2022-10-19T10:37:21;10.85;;;1.10;;
43509;SDS011;29105;57.764;40.952;2022-10-19T10:39:52;4.80;;;1.38;;
43509;SDS011;29105;57.764;40.952;2022-10-19T10:42:21;10.02;;;0.90;;
43509;SDS011;29105;57.764;40.952;2022-10-19T10:44:53;7.05;;;1.75;;
43509;SDS011;29105;57.764;40.952;2022-10-19T10:47:23;3.70;;;0.73;;
43509;SDS011;29105;57.764;40.952;2022-10-19T10:50:01;6.47;;;0.70;;
43509;SDS011;29105;57.764;40.952;2022-10-19T10:52:30;2.78;;;0.40;;
43509;SDS011;29105;57.764;40.952;2022-10-19T10:57:45;2.45;;;0.60;;
43509;SDS011;29105;57.764;40.952;2022-10-19T11:00:17;2.00;;;0.65;;
43509;SDS011;29105;57.764;40.952;2022-10-19T11:11:12;10.00;;;0.70;;
43509;SDS011;29105;57.764;40.952;2022-10-19T11:16:32;0.77;;;0.28;;
43509;SDS011;29105;57.764;40.952;2022-10-19T11:19:13;2.55;;;0.52;;
43509;SDS011;29105;57.764;40.952;2022-10-19T11:27:17;4.63;;;0.43;;
43509;SDS011;29105;57.764;40.952;2022-10-19T11:32:51;2.53;;;0.40;;
43509;SDS011;29105;57.764;40.952;2022-10-19T11:43:20;1.63;;;0.50;;
43509;SDS011;29105;57.764;40.952;2022-10-19T11:46:24;2.35;;;0.90;;
43509;SDS011;29105;57.764;40.952;2022-10-19T11:48:53;3.42;;;1.17;;
43509;SDS011;29105;57.764;40.952;2022-10-19T11:54:09;4.40;;;1.88;;
43509;SDS011;29105;57.764;40.952;2022-10-19T12:07:16;6.05;;;1.50;;
43509;SDS011;29105;57.764;40.952;2022-10-19T12:12:32;4.63;;;1.90;;
43509;SDS011;29105;57.764;40.952;2022-10-19T12:17:43;6.72;;;2.05;;
43509;SDS011;29105;57.764;40.952;2022-10-19T12:20:19;7.35;;;2.05;;
43509;SDS011;29105;57.764;40.952;2022-10-19T12:22:46;6.13;;;2.22;;
43509;SDS011;29105;57.764;40.952;2022-10-19T12:25:13;6.88;;;2.40;;
43509;SDS011;29105;57.764;40.952;2022-10-19T12:27:40;8.55;;;1.88;;
43509;SDS011;29105;57.764;40.952;2022-10-19T12:30:07;8.75;;;1.90;;
43509;SDS011;29105;57.764;40.952;2022-10-19T12:47:08;3.95;;;0.93;;
43509;SDS011;29105;57.764;40.952;2022-10-19T12:49:45;3.50;;;1.25;;
43509;SDS011;29105;57.764;40.952;2022-10-19T12:52:37;4.43;;;1.63;;
43509;SDS011;29105;57.764;40.952;2022-10-19T12:57:35;4.50;;;1.15;;
43509;SDS011;29105;57.764;40.952;2022-10-19T13:00:17;6.95;;;1.80;;
43509;SDS011;29105;57.764;40.952;2022-10-19T13:02:54;6.15;;;1.50;;
43509;SDS011;29105;57.764;40.952;2022-10-19T13:05:23;9.57;;;2.25;;
43509;SDS011;29105;57.764;40.952;2022-10-19T13:07:52;6.45;;;1.65;;
43509;SDS011;29105;57.764;40.952;2022-10-19T13:10:18;7.45;;;2.03;;
43509;SDS011;29105;57.764;40.952;2022-10-19T13:12:47;12.13;;;2.97;;
43509;SDS011;29105;57.764;40.952;2022-10-19T13:18:01;13.18;;;2.70;;
43509;SDS011;29105;57.764;40.952;2022-10-19T13:25:38;7.53;;;2.22;;
43509;SDS011;29105;57.764;40.952;2022-10-19T13:41:26;11.10;;;1.75;;
43509;SDS011;29105;57.764;40.952;2022-10-19T13:49:27;11.70;;;2.80;;
43509;SDS011;29105;57.764;40.952;2022-10-19T13:54:39;2.33;;;0.98;;
43509;SDS011;29105;57.764;40.952;2022-10-19T14:10:39;6.15;;;0.80;;
43509;SDS011;29105;57.764;40.952;2022-10-19T14:13:09;7.43;;;1.08;;
43509;SDS011;29105;57.764;40.952;2022-10-19T14:15:38;2.20;;;0.90;;
43509;SDS011;29105;57.764;40.952;2022-10-19T14:18:19;4.40;;;1.00;;
43509;SDS011;29105;57.764;40.952;2022-10-19T14:23:30;3.65;;;1.55;;
43509;SDS011;29105;57.764;40.952;2022-10-19T14:25:59;9.13;;;2.45;;
43509;SDS011;29105;57.764;40.952;2022-10-19T14:28:26;3.83;;;1.00;;
43509;SDS011;29105;57.764;40.952;2022-10-19T14:30:56;18.80;;;2.47;;
43509;SDS011;29105;57.764;40.952;2022-10-19T14:33:34;8.35;;;2.60;;
43509;SDS011;29105;57.764;40.952;2022-10-19T14:36:02;8.13;;;3.10;;
43509;SDS011;29105;57.764;40.952;2022-10-19T14:38:35;5.38;;;1.45;;
43509;SDS011;29105;57.764;40.952;2022-10-19T14:41:05;9.52;;;2.65;;
43509;SDS011;29105;57.764;40.952;2022-10-19T14:43:33;7.47;;;1.70;;
43509;SDS011;29105;57.764;40.952;2022-10-19T14:48:31;5.47;;;2.38;;
43509;SDS011;29105;57.764;40.952;2022-10-19T14:50:58;11.25;;;3.17;;
43509;SDS011;29105;57.764;40.952;2022-10-19T14:56:13;4.35;;;2.10;;
43509;SDS011;29105;57.764;40.952;2022-10-19T15:01:56;2.03;;;0.73;;
43509;SDS011;29105;57.764;40.952;2022-10-19T15:04:27;12.77;;;2.92;;
43509;SDS011;29105;57.764;40.952;2022-10-19T15:06:55;24.65;;;7.95;;
43509;SDS011;29105;57.764;40.952;2022-10-19T15:09:29;33.17;;;12.32;;
43509;SDS011;29105;57.764;40.952;2022-10-19T15:11:59;36.55;;;15.23;;
43509;SDS011;29105;57.764;40.952;2022-10-19T15:14:30;19.45;;;8.93;;
43509;SDS011;29105;57.764;40.952;2022-10-19T15:16:58;20.88;;;9.60;;
43509;SDS011;29105;57.764;40.952;2022-10-19T15:24:33;13.10;;;3.45;;
43509;SDS011;29105;57.764;40.952;2022-10-19T15:27:10;9.32;;;3.95;;
43509;SDS011;29105;57.764;40.952;2022-10-19T15:29:52;6.05;;;1.83;;
43509;SDS011;29105;57.764;40.952;2022-10-19T15:32:41;4.82;;;2.30;;
43509;SDS011;29105;57.764;40.952;2022-10-19T15:35:16;16.48;;;2.63;;
43509;SDS011;29105;57.764;40.952;2022-10-19T15:37:49;6.60;;;1.23;;
43509;SDS011;29105;57.764;40.952;2022-10-19T15:40:19;4.63;;;1.52;;
43509;SDS011;29105;57.764;40.952;2022-10-19T15:42:48;11.93;;;5.15;;
43509;SDS011;29105;57.764;40.952;2022-10-19T15:53:53;14.57;;;1.55;;
43509;SDS011;29105;57.764;40.952;2022-10-19T15:56:20;6.15;;;1.35;;
43509;SDS011;29105;57.764;40.952;2022-10-19T15:58:50;9.48;;;2.85;;
43509;SDS011;29105;57.764;40.952;2022-10-19T16:01:18;12.07;;;2.03;;
43509;SDS011;29105;57.764;40.952;2022-10-19T16:03:45;8.25;;;1.05;;
43509;SDS011;29105;57.764;40.952;2022-10-19T16:06:10;17.10;;;5.05;;
43509;SDS011;29105;57.764;40.952;2022-10-19T16:08:36;5.28;;;1.88;;
43509;SDS011;29105;57.764;40.952;2022-10-19T16:11:02;3.65;;;1.20;;
43509;SDS011;29105;57.764;40.952;2022-10-19T16:13:36;1.58;;;0.50;;
43509;SDS011;29105;57.764;40.952;2022-10-19T16:16:04;5.20;;;0.98;;
43509;SDS011;29105;57.764;40.952;2022-10-19T16:18:31;4.70;;;0.95;;
43509;SDS011;29105;57.764;40.952;2022-10-19T16:20:58;5.40;;;1.25;;
43509;SDS011;29105;57.764;40.952;2022-10-19T16:23:24;10.48;;;2.08;;
43509;SDS011;29105;57.764;40.952;2022-10-19T16:25:50;10.65;;;1.30;;
43509;SDS011;29105;57.764;40.952;2022-10-19T16:28:17;7.45;;;1.70;;
43509;SDS011;29105;57.764;40.952;2022-10-19T16:30:43;6.88;;;1.30;;
43509;SDS011;29105;57.764;40.952;2022-10-19T16:33:10;10.38;;;1.85;;
43509;SDS011;29105;57.764;40.952;2022-10-19T16:35:36;3.95;;;2.10;;
43509;SDS011;29105;57.764;40.952;2022-10-19T16:38:02;5.70;;;2.05;;
43509;SDS011;29105;57.764;40.952;2022-10-19T16:40:27;6.75;;;2.08;;
43509;SDS011;29105;57.764;40.952;2022-10-19T16:42:54;7.75;;;2.83;;
43509;SDS011;29105;57.764;40.952;2022-10-19T16:45:23;7.50;;;2.40;;
43509;SDS011;29105;57.764;40.952;2022-10-19T16:47:49;6.35;;;2.10;;
43509;SDS011;29105;57.764;40.952;2022-10-19T16:50:15;9.75;;;3.28;;
43509;SDS011;29105;57.764;40.952;2022-10-19T16:52:43;7.00;;;2.50;;
43509;SDS011;29105;57.764;40.952;2022-10-19T16:55:09;14.05;;;3.42;;
43509;SDS011;29105;57.764;40.952;2022-10-19T16:57:35;10.15;;;3.38;;
43509;SDS011;29105;57.764;40.952;2022-10-19T17:00:01;7.32;;;3.08;;
43509;SDS011;29105;57.764;40.952;2022-10-19T17:02:29;10.50;;;2.35;;
43509;SDS011;29105;57.764;40.952;2022-10-19T17:04:54;14.48;;;2.63;;
43509;SDS011;29105;57.764;40.952;2022-10-19T17:07:20;13.38;;;4.13;;
43509;SDS011;29105;57.764;40.952;2022-10-19T17:09:46;8.50;;;2.22;;
43509;SDS011;29105;57.764;40.952;2022-10-19T17:12:12;4.63;;;1.60;;
43509;SDS011;29105;57.764;40.952;2022-10-19T17:14:41;12.80;;;1.13;;
43509;SDS011;29105;57.764;40.952;2022-10-19T17:17:07;3.65;;;0.98;;
43509;SDS011;29105;57.764;40.952;2022-10-19T17:19:35;4.20;;;1.35;;
43509;SDS011;29105;57.764;40.952;2022-10-19T17:22:01;5.85;;;1.10;;
43509;SDS011;29105;57.764;40.952;2022-10-19T17:24:29;4.38;;;0.90;;
43509;SDS011;29105;57.764;40.952;2022-10-19T17:26:55;5.28;;;1.42;;
43509;SDS011;29105;57.764;40.952;2022-10-19T17:29:21;16.60;;;1.50;;
43509;SDS011;29105;57.764;40.952;2022-10-19T17:31:47;3.58;;;1.58;;
43509;SDS011;29105;57.764;40.952;2022-10-19T17:34:14;4.63;;;1.23;;
43509;SDS011;29105;57.764;40.952;2022-10-19T17:36:42;2.00;;;1.27;;
43509;SDS011;29105;57.764;40.952;2022-10-19T17:39:10;10.07;;;3.25;;
43509;SDS011;29105;57.764;40.952;2022-10-19T17:41:41;2.95;;;1.40;;
43509;SDS011;29105;57.764;40.952;2022-10-19T17:44:08;4.45;;;1.25;;
43509;SDS011;29105;57.764;40.952;2022-10-19T17:46:34;6.85;;;1.42;;
43509;SDS011;29105;57.764;40.952;2022-10-19T17:49:00;5.90;;;2.17;;
43509;SDS011;29105;57.764;40.952;2022-10-19T17:51:29;3.95;;;2.60;;
43509;SDS011;29105;57.764;40.952;2022-10-19T17:54:00;8.13;;;1.75;;
43509;SDS011;29105;57.764;40.952;2022-10-19T17:56:28;4.63;;;1.60;;